Terminal Aerodrome Forecast
Issued by NWS

Home | Current Version | Previous Version | Graphics & Text | Print | Product List | Glossary On
Versions: 1 2 3 4 5 6 7 8 9 10 11 12 13 14 15 16 17 18 19 20
876
FTUS43 KABR 250536
TAFATY
TAF
KATY 250536Z 2506/2606 09006KT P6SM BKN080
     FM251100 13007KT P6SM SHRA VCTS BKN080CB
     FM251600 16011KT P6SM BKN060=

USA.gov is the U.S. government's official web portal to all federal, state and local government web resources and services.